Aviation Digital Data Service (ADDS)

Output produced by METARs form (1708 UTC 30 October 2020)
found at http://www.aviationweather.gov/metar/data/
 
LETO 301700Z 00000KT CAVOK 17/10 Q1026 NOSIG
TAF LETO 301100Z 3012/3112 VRB03KT CAVOK TX21/3015Z TN04/3106Z 
     TEMPO 3019/3107 01007KT
       
LEZG 301700Z VRB01KT CAVOK 19/10 Q1024
TAF LEZG 301100Z 3012/3112 VRB04KT CAVOK TX22/3013Z TN07/3106Z 
     PROB40 
     TEMPO 3013/3018 09010KT
       
LERT 301700Z 26004KT 250V350 CAVOK 23/11 Q1022 NOSIG
TAF LERT 301400Z 3015/3115 13010KT CAVOK TX26/3015Z TN12/3106Z 
     PROB30 
     TEMPO 3015/3018 23005KT 
     BECMG 3017/3020 07005KT 
     BECMG 3110/3112 29010KT
       
LELC 301700Z AUTO 08003KT 030V130 CAVOK 19/16 Q1024
TAF LELC 301100Z 3012/3112 34004KT 9999 FEW015 TX23/3013Z TN11/3106Z 
     PROB40 
     TEMPO 3012/3016 09010KT 
     PROB40 
     TEMPO 3022/3106 2000 BR BCFG BKN003
       
LEAB 301700Z 18002KT CAVOK 21/07 Q1026 NOSIG
TAF LEAB 301100Z 3012/3112 VRB05KT CAVOK TX23/3015Z TN06/3106Z 
     PROB40 3015/3023 15008KT 
     PROB40 
     TEMPO 3103/3109 2500 BR NSC 
     BECMG 3111/3112 34008KT
       
LEBZ 301700Z 00000KT CAVOK 25/11 Q1023
TAF LEBZ 301100Z 3012/3112 06004KT CAVOK TX25/3015Z TN09/3106Z 
     PROB30 
     TEMPO 3103/3108 4000 BR NSW
       
LEMO 301700Z 22004KT CAVOK 24/11 Q1022 NOSIG
TAF LEMO 301400Z 3015/3115 24005KT CAVOK TX28/3015Z TN11/3107Z
       
LESA 301700Z 07003KT 9999 FEW040 19/09 Q1026
TAF LESA 301400Z 3015/3115 VRB02KT 9999 FEW030 TX22/3015Z TN03/3106Z 
     PROB40 
     TEMPO 3102/3109 3000 BR 
     PROB30 
     TEMPO 3103/3109 0300 BCFG BKN001 
     BECMG 3110/3111 25007KT
       
GCLP 301700Z 33004KT 280V020 CAVOK 26/11 Q1017 NOSIG
TAF GCLP 301400Z 3015/3115 01013KT 9999 FEW020 TX29/3114Z TN21/3107Z
       
LIED 301555Z 31008KT 9999 SCT030 21/18 Q1024 RMK SCT VIS MIN 9999 WIND THR35 /////KT WIND THR17 /////KT BLU
TAF LIED 301400Z 3015/3024 34010KT 9999 SCT030 
     BECMG 0818/0820 33005KT 9999 FEW010
       
LIPR 301650Z 09002KT CAVOK 14/12 Q1023
TAF LIPR 301400Z 3015/3024 VRB05KT 9999 FEW050 
     BECMG 3018/3020 3000 BR